< Cyclone 198011 1980 Season Cyclone 198013 >
Cyclone 198012 (SIMON)
General InformationDetailed Track InformationTrack Information on Google Maps || ResourceGoogle EarthGE AnimationAtom FeedGeoJSON
Detalied Best Track Wind (Time Zone = UTC)
Year Month Day Hour Lat. Long. Wind (kt) Gust (kt) Direc. of Major Storm Axis Radius of Major Storm Axis (nm) Radius of Minor Storm Axis (nm) Direc. of Major Gale Axis Radius of Major Gale Axis (nm) Radius of Minor Gale Axis (nm) Image
1980 2 21 18 -16.9 153.8 25 45 symmetric - - symmetric - - --
1980 2 22 00 -17.7 153.4 30 45 symmetric - - symmetric - - --
1980 2 22 06 -18.5 153.1 35 50 symmetric - - symmetric - - --
1980 2 22 12 -19.2 152.8 40 55 symmetric - - symmetric - - --
1980 2 22 18 -19.9 152.3 45 65 symmetric - - symmetric - - --
1980 2 23 00 -20.4 152.0 55 75 symmetric - - symmetric - - --
1980 2 23 06 -21.2 151.4 75 105 symmetric - - symmetric - - --
1980 2 23 12 -21.5 151.0 85 120 symmetric - - symmetric - - --
1980 2 23 18 -22.1 150.9 85 120 symmetric - - symmetric - - --
1980 2 24 00 -22.4 150.8 90 125 symmetric - - symmetric - - --
1980 2 24 06 -22.6 151.0 90 125 symmetric - - symmetric - - --
1980 2 24 12 -22.8 151.5 80 110 symmetric - - symmetric - - --
1980 2 24 18 -22.7 151.8 80 110 symmetric - - symmetric - - --
1980 2 25 00 -22.9 151.9 80 110 symmetric - - symmetric - - --
1980 2 25 06 -23.1 152.3 80 110 symmetric - - symmetric - - --
1980 2 25 12 -23.2 152.6 80 110 symmetric - - symmetric - - --
1980 2 25 18 -23.0 152.7 80 110 symmetric - - symmetric - - --
1980 2 26 00 -23.2 152.5 80 110 symmetric - - symmetric - - --
1980 2 26 06 -23.2 152.8 80 110 symmetric - - symmetric - - --
1980 2 26 12 -23.5 153.1 80 110 symmetric - - symmetric - - --
1980 2 26 18 -24.1 153.2 80 110 symmetric - - symmetric - - --
1980 2 27 00 -24.5 153.6 80 110 symmetric - - symmetric - - --
1980 2 27 06 -25.4 154.1 70 100 symmetric - - symmetric - - --
1980 2 27 12 -26.4 155.1 60 85 symmetric - - symmetric - - --
1980 2 27 18 -27.4 156.3 60 85 symmetric - - symmetric - - --
1980 2 28 00 -28.4 157.7 50 70 symmetric - - symmetric - - --
1980 2 28 06 -29.4 159.1 50 70 symmetric - - symmetric - - --
1980 2 28 12 -30.4 160.5 40 55 symmetric - - symmetric - - --
< Cyclone 198011 1980 Season Cyclone 198013 >

Help